createdAt,value
2022-12-09T00:04:07.345Z,991.18
2022-12-09T00:09:07.132Z,991.16
2022-12-09T00:14:07.055Z,991.15
2022-12-09T00:19:06.978Z,991.10
2022-12-09T00:24:07.025Z,991.01
2022-12-09T00:29:06.822Z,991.03
2022-12-09T00:34:06.820Z,991.00
2022-12-09T00:39:06.705Z,990.98
2022-12-09T00:44:06.838Z,990.99
2022-12-09T00:49:06.601Z,991.02
2022-12-09T00:54:07.583Z,990.97
2022-12-09T00:59:07.552Z,991.00
2022-12-09T01:04:06.491Z,991.01
2022-12-09T01:09:09.893Z,991.01
2022-12-09T01:14:06.645Z,991.01
2022-12-09T01:19:06.400Z,991.02
2022-12-09T01:24:06.353Z,991.06
2022-12-09T01:29:06.289Z,991.11
2022-12-09T01:34:06.410Z,991.09
2022-12-09T01:39:06.380Z,991.11
2022-12-09T01:44:05.946Z,991.09
2022-12-09T01:49:05.868Z,991.06
2022-12-09T01:54:06.249Z,991.03
2022-12-09T01:59:05.896Z,991.02
2022-12-09T02:04:05.929Z,990.99
2022-12-09T02:09:05.904Z,990.88
2022-12-09T02:14:05.634Z,990.87
2022-12-09T02:19:05.818Z,990.91
2022-12-09T02:24:05.551Z,990.87
2022-12-09T02:29:05.686Z,990.88
2022-12-09T02:34:05.536Z,990.78
2022-12-09T02:39:05.793Z,990.76
2022-12-09T02:44:05.505Z,990.72
2022-12-09T02:49:05.560Z,990.73
2022-12-09T02:54:05.505Z,990.71
2022-12-09T02:59:05.119Z,990.69
2022-12-09T03:04:05.215Z,990.64
2022-12-09T03:09:05.417Z,990.64
2022-12-09T03:14:05.089Z,990.59
2022-12-09T03:19:05.355Z,990.66
2022-12-09T03:24:05.139Z,990.64
2022-12-09T03:29:04.881Z,990.56
2022-12-09T03:34:05.072Z,990.57
2022-12-09T03:39:14.353Z,990.57
2022-12-09T03:44:04.666Z,990.51
2022-12-09T03:49:04.879Z,990.50
2022-12-09T03:54:04.534Z,990.45
2022-12-09T03:59:04.843Z,990.46
2022-12-09T04:04:04.506Z,990.43
2022-12-09T04:09:04.925Z,990.46
2022-12-09T04:14:15.772Z,990.35
2022-12-09T04:19:04.389Z,990.37
2022-12-09T04:24:04.275Z,990.36
2022-12-09T04:29:04.419Z,990.25
2022-12-09T04:34:09.293Z,990.25
2022-12-09T04:39:05.398Z,990.27
2022-12-09T04:44:04.285Z,990.31
2022-12-09T04:49:04.091Z,990.30
2022-12-09T04:54:03.917Z,990.20
2022-12-09T04:59:03.827Z,990.25
2022-12-09T05:04:04.378Z,990.24
2022-12-09T05:09:04.306Z,990.24
2022-12-09T05:14:03.865Z,990.25
2022-12-09T05:19:03.992Z,990.24
2022-12-09T05:24:03.794Z,990.25
2022-12-09T05:29:03.625Z,990.27
2022-12-09T05:34:03.884Z,990.24
2022-12-09T05:39:03.789Z,990.20
2022-12-09T05:44:03.411Z,990.22
2022-12-09T05:49:03.826Z,990.26
2022-12-09T05:54:03.584Z,990.24
2022-12-09T05:59:03.336Z,990.21
2022-12-09T06:04:03.459Z,990.17
2022-12-09T06:09:03.687Z,990.12
2022-12-09T06:14:03.541Z,990.12
2022-12-09T06:20:27.803Z,990.08
2022-12-09T06:25:27.372Z,990.00
2022-12-09T06:30:27.464Z,990.04
2022-12-09T06:35:27.763Z,990.03
2022-12-09T06:40:27.204Z,990.03
2022-12-09T06:45:27.546Z,990.02
2022-12-09T06:50:27.307Z,990.00
2022-12-09T06:55:27.434Z,990.04
2022-12-09T07:00:27.441Z,990.08
2022-12-09T07:05:27.047Z,990.10
2022-12-09T07:10:27.177Z,990.19
2022-12-09T07:15:27.015Z,990.22
2022-12-09T07:20:26.895Z,990.35
2022-12-09T07:25:26.765Z,990.36
2022-12-09T07:30:27.015Z,990.33
2022-12-09T07:35:26.875Z,990.40
2022-12-09T07:40:26.650Z,990.35
2022-12-09T07:45:26.990Z,990.39
2022-12-09T07:50:26.816Z,990.43
2022-12-09T07:55:26.354Z,990.49
2022-12-09T08:00:26.504Z,990.49
2022-12-09T08:05:26.510Z,990.58
2022-12-09T08:10:26.413Z,990.69
2022-12-09T08:15:26.196Z,990.68
2022-12-09T08:20:29.463Z,990.72
2022-12-09T08:25:26.471Z,990.73
2022-12-09T08:30:26.379Z,990.70
2022-12-09T08:35:26.249Z,990.73
2022-12-09T08:40:26.216Z,990.61
2022-12-09T08:45:26.226Z,990.58
2022-12-09T08:50:26.452Z,990.58
2022-12-09T08:55:27.150Z,990.56
2022-12-09T09:00:25.969Z,990.54
2022-12-09T09:05:26.168Z,990.50
2022-12-09T09:10:25.906Z,990.48
2022-12-09T09:15:25.791Z,990.51
2022-12-09T09:20:25.726Z,990.51
2022-12-09T09:25:25.580Z,990.62
2022-12-09T09:30:25.483Z,990.64
2022-12-09T09:35:25.586Z,990.70
2022-12-09T09:40:25.856Z,990.67
2022-12-09T09:45:25.582Z,990.67
2022-12-09T09:50:25.455Z,990.66
2022-12-09T09:55:25.161Z,990.65
2022-12-09T10:00:26.069Z,990.65
2022-12-09T10:05:25.257Z,990.55
2022-12-09T10:10:34.364Z,990.53
2022-12-09T10:15:25.094Z,990.52
2022-12-09T10:20:25.502Z,990.55
2022-12-09T10:25:25.024Z,990.50
2022-12-09T10:30:28.229Z,990.41
2022-12-09T10:35:25.976Z,990.29
2022-12-09T10:40:24.891Z,990.26
2022-12-09T10:45:24.743Z,990.22
2022-12-09T10:50:25.211Z,990.19
2022-12-09T10:55:24.880Z,990.18
2022-12-09T11:00:28.364Z,990.18
2022-12-09T11:05:25.750Z,990.15
2022-12-09T11:10:25.366Z,990.13
2022-12-09T11:15:24.732Z,990.14
2022-12-09T11:20:24.469Z,990.12
2022-12-09T11:25:24.791Z,990.10
2022-12-09T11:30:24.895Z,990.05
2022-12-09T11:35:24.232Z,990.06
2022-12-09T11:40:23.957Z,990.00
2022-12-09T11:45:23.918Z,990.05
2022-12-09T11:50:23.907Z,990.03
2022-12-09T11:55:23.819Z,989.93
2022-12-09T12:00:23.766Z,989.94
2022-12-09T12:05:23.734Z,989.92
2022-12-09T12:10:23.637Z,989.92
2022-12-09T12:15:23.643Z,989.88
2022-12-09T12:20:23.547Z,989.83
2022-12-09T12:25:23.473Z,989.83
2022-12-09T12:30:23.562Z,989.80
2022-12-09T12:35:23.461Z,989.80
2022-12-09T12:40:26.721Z,989.71
2022-12-09T12:45:23.271Z,989.72
2022-12-09T12:50:23.241Z,989.67
2022-12-09T12:55:23.255Z,989.68
2022-12-09T13:00:23.177Z,989.66
2022-12-09T13:05:23.067Z,989.64
2022-12-09T13:10:22.986Z,989.72
2022-12-09T13:15:22.954Z,989.63
2022-12-09T13:20:22.924Z,989.57
2022-12-09T13:25:22.865Z,989.60
2022-12-09T13:30:22.963Z,989.56
2022-12-09T13:35:22.716Z,989.49
2022-12-09T13:40:22.741Z,989.48
2022-12-09T13:45:22.742Z,989.51
2022-12-09T13:50:22.603Z,989.60
2022-12-09T13:55:22.738Z,989.55
2022-12-09T14:00:23.567Z,989.57
2022-12-09T14:05:22.552Z,989.57
2022-12-09T14:10:22.528Z,989.55
2022-12-09T14:15:24.746Z,989.61
2022-12-09T14:20:23.322Z,989.59
2022-12-09T14:25:22.257Z,989.61
2022-12-09T14:30:22.120Z,989.64
2022-12-09T14:35:22.256Z,989.69
2022-12-09T14:40:22.103Z,989.74
2022-12-09T14:45:22.169Z,989.75
2022-12-09T14:50:22.905Z,989.74
2022-12-09T14:55:21.893Z,989.76
2022-12-09T15:00:21.949Z,989.84
2022-12-09T15:05:21.893Z,989.81
2022-12-09T15:10:22.941Z,989.75
2022-12-09T15:15:21.949Z,989.82
2022-12-09T15:20:21.611Z,989.79
2022-12-09T15:25:21.594Z,989.90
2022-12-09T15:30:21.522Z,989.85
2022-12-09T15:35:21.525Z,989.87
2022-12-09T15:40:21.423Z,989.95
2022-12-09T15:45:21.361Z,989.99
2022-12-09T15:50:21.422Z,990.07
2022-12-09T15:55:21.220Z,990.09
2022-12-09T16:00:21.226Z,990.01
2022-12-09T16:05:22.264Z,990.05
2022-12-09T16:10:21.071Z,990.09
2022-12-09T16:15:29.868Z,989.99
2022-12-09T16:20:20.939Z,990.00
2022-12-09T16:25:20.869Z,989.99
2022-12-09T16:30:20.818Z,990.07
2022-12-09T16:35:20.952Z,990.13
2022-12-09T16:40:20.729Z,990.17
2022-12-09T16:45:21.843Z,990.20
2022-12-09T16:50:20.758Z,990.16
2022-12-09T16:55:20.675Z,990.19
2022-12-09T17:00:20.500Z,990.14
2022-12-09T17:05:20.435Z,990.20
2022-12-09T17:10:20.404Z,990.30
2022-12-09T17:15:20.848Z,990.30
2022-12-09T17:20:20.321Z,990.39
2022-12-09T17:25:20.356Z,990.42
2022-12-09T17:30:21.310Z,990.46
2022-12-09T17:35:20.251Z,990.57
2022-12-09T17:40:20.137Z,990.64
2022-12-09T17:45:20.088Z,990.65
2022-12-09T17:50:20.052Z,990.73
2022-12-09T17:55:21.988Z,990.82
2022-12-09T18:00:19.974Z,990.92
2022-12-09T18:05:19.963Z,990.91
2022-12-09T18:10:20.003Z,990.92
2022-12-09T18:15:19.782Z,990.95
2022-12-09T18:20:19.877Z,990.93
2022-12-09T18:25:19.796Z,990.94
2022-12-09T18:30:19.517Z,990.97
2022-12-09T18:35:19.536Z,991.02
2022-12-09T18:40:19.432Z,991.12
2022-12-09T18:45:19.455Z,991.11
2022-12-09T18:50:19.411Z,991.09
2022-12-09T18:55:19.292Z,991.18
2022-12-09T19:00:19.359Z,991.12
2022-12-09T19:05:19.288Z,991.11
2022-12-09T19:10:19.265Z,991.19
2022-12-09T19:15:19.166Z,991.17
2022-12-09T19:20:19.163Z,991.25
2022-12-09T19:25:18.980Z,991.31
2022-12-09T19:30:18.892Z,991.32
2022-12-09T19:35:18.856Z,991.35
2022-12-09T19:40:18.806Z,991.38
2022-12-09T19:45:18.919Z,991.38
2022-12-09T19:50:18.708Z,991.39
2022-12-09T19:55:18.690Z,991.40
2022-12-09T20:00:18.653Z,991.42
2022-12-09T20:05:18.544Z,991.42
2022-12-09T20:10:18.542Z,991.42
2022-12-09T20:15:18.577Z,991.40
2022-12-09T20:20:18.343Z,991.38
2022-12-09T20:25:20.368Z,991.42
2022-12-09T20:30:18.263Z,991.45
2022-12-09T20:35:18.199Z,991.48
2022-12-09T20:40:18.136Z,991.42
2022-12-09T20:45:18.083Z,991.44
2022-12-09T20:50:18.164Z,991.48
2022-12-09T20:55:17.972Z,991.50
2022-12-09T21:00:18.137Z,991.53
2022-12-09T21:05:17.897Z,991.59
2022-12-09T21:10:17.906Z,991.60
2022-12-09T21:15:17.755Z,991.61
2022-12-09T21:20:17.696Z,991.54
2022-12-09T21:25:17.684Z,991.55
2022-12-09T21:30:17.603Z,991.67
2022-12-09T21:35:17.692Z,991.63
2022-12-09T21:40:21.107Z,991.67
2022-12-09T21:45:17.520Z,991.65
2022-12-09T21:50:17.547Z,991.66
2022-12-09T21:55:17.339Z,991.70
2022-12-09T22:00:17.333Z,991.77
2022-12-09T22:05:17.216Z,991.72
2022-12-09T22:10:17.190Z,991.74
2022-12-09T22:15:25.973Z,991.76
2022-12-09T22:21:24.131Z,991.68
2022-12-09T22:25:18.090Z,991.68
2022-12-09T22:30:17.053Z,991.71
2022-12-09T22:35:17.040Z,991.82
2022-12-09T22:40:16.903Z,991.84
2022-12-09T22:45:16.807Z,991.82
2022-12-09T22:50:16.899Z,991.92
2022-12-09T22:55:16.782Z,991.87
2022-12-09T23:00:16.657Z,991.79
2022-12-09T23:05:16.667Z,991.78
2022-12-09T23:10:16.604Z,991.76
2022-12-09T23:15:16.533Z,991.82
2022-12-09T23:20:16.435Z,991.83
2022-12-09T23:25:16.403Z,991.82
2022-12-09T23:30:16.351Z,991.97
2022-12-09T23:35:16.311Z,991.98
2022-12-09T23:40:16.256Z,992.05
2022-12-09T23:45:16.203Z,992.05
2022-12-09T23:50:16.204Z,992.06
2022-12-09T23:55:16.151Z,992.12
